createdAt,value
2017-08-19T00:02:00.937Z,99.90
2017-08-19T00:04:26.904Z,99.90
2017-08-19T00:06:52.862Z,99.90
2017-08-19T00:09:18.832Z,99.90
2017-08-19T00:11:44.752Z,99.90
2017-08-19T00:14:10.765Z,99.90
2017-08-19T00:16:36.693Z,99.90
2017-08-19T00:19:02.640Z,99.90
2017-08-19T00:21:28.575Z,99.90
2017-08-19T00:23:54.523Z,99.70
2017-08-19T00:26:20.468Z,99.50
2017-08-19T00:28:46.406Z,99.50
2017-08-19T00:31:12.543Z,99.10
2017-08-19T00:33:38.473Z,98.70
2017-08-19T00:36:04.427Z,98.60
2017-08-19T00:38:30.396Z,98.50
2017-08-19T00:40:56.305Z,98.60
2017-08-19T00:43:22.291Z,98.80
2017-08-19T00:45:48.359Z,99.10
2017-08-19T00:48:14.296Z,99.20
2017-08-19T00:50:40.234Z,99.40
2017-08-19T00:53:06.170Z,99.40
2017-08-19T00:55:32.081Z,99.40
2017-08-19T00:57:58.039Z,99.70
2017-08-19T01:00:23.936Z,99.90
2017-08-19T01:02:49.913Z,99.90
2017-08-19T01:05:15.915Z,99.90
2017-08-19T01:07:41.849Z,99.90
2017-08-19T01:10:07.805Z,99.90
2017-08-19T01:12:33.822Z,99.90
2017-08-19T01:14:59.776Z,99.90
2017-08-19T01:17:25.696Z,99.90
2017-08-19T01:19:51.660Z,99.90
2017-08-19T01:22:17.622Z,99.90
2017-08-19T01:24:43.562Z,99.90
2017-08-19T01:27:09.583Z,99.90
2017-08-19T01:29:35.539Z,99.90
2017-08-19T01:32:01.475Z,99.90
2017-08-19T01:34:28.413Z,99.90
2017-08-19T01:36:54.393Z,99.80
2017-08-19T01:39:20.345Z,99.90
2017-08-19T01:41:46.303Z,99.50
2017-08-19T01:44:12.239Z,99.70
2017-08-19T01:46:38.181Z,99.60
2017-08-19T01:49:04.205Z,99.50
2017-08-19T01:51:30.199Z,99.70
2017-08-19T01:53:56.209Z,99.60
2017-08-19T01:56:22.165Z,99.30
2017-08-19T01:58:48.091Z,99.60
2017-08-19T02:01:14.033Z,99.40
2017-08-19T02:03:39.958Z,99.80
2017-08-19T02:06:05.907Z,99.90
2017-08-19T02:08:31.832Z,99.80
2017-08-19T02:10:57.755Z,99.90
2017-08-19T02:13:23.690Z,99.90
2017-08-19T02:15:49.607Z,99.90
2017-08-19T02:18:15.626Z,99.90
2017-08-19T02:20:41.556Z,99.90
2017-08-19T02:23:07.511Z,99.90
2017-08-19T02:25:33.491Z,99.90
2017-08-19T02:27:59.463Z,99.80
2017-08-19T02:30:25.469Z,99.60
2017-08-19T02:32:51.396Z,99.50
2017-08-19T02:35:17.317Z,99.40
2017-08-19T02:37:43.231Z,99.60
2017-08-19T02:40:09.153Z,99.80
2017-08-19T02:42:35.083Z,99.20
2017-08-19T02:45:00.980Z,99.50
2017-08-19T02:47:26.918Z,99.90
2017-08-19T02:49:52.844Z,99.40
2017-08-19T02:52:18.820Z,99.40
2017-08-19T02:54:44.752Z,99.20
2017-08-19T02:57:10.701Z,99.40
2017-08-19T02:59:36.700Z,99.30
2017-08-19T03:02:02.627Z,99.00
2017-08-19T03:04:28.539Z,98.70
2017-08-19T03:06:54.458Z,98.80
2017-08-19T03:09:20.383Z,98.70
2017-08-19T03:11:46.301Z,98.60
2017-08-19T03:14:12.251Z,98.50
2017-08-19T03:16:38.198Z,98.70
2017-08-19T03:19:04.124Z,98.70
2017-08-19T03:21:30.071Z,98.70
2017-08-19T03:23:56.039Z,98.80
2017-08-19T03:26:21.968Z,98.70
2017-08-19T03:28:47.901Z,99.00
2017-08-19T03:31:13.809Z,99.00
2017-08-19T03:33:39.739Z,99.10
2017-08-19T03:36:05.699Z,99.10
2017-08-19T03:38:31.637Z,99.00
2017-08-19T03:40:57.555Z,99.20
2017-08-19T03:43:23.564Z,99.30
2017-08-19T03:45:49.500Z,99.30
2017-08-19T03:48:15.423Z,99.40
2017-08-19T03:50:41.387Z,99.60
2017-08-19T03:53:07.328Z,99.40
2017-08-19T03:55:33.251Z,99.90
2017-08-19T03:57:59.196Z,99.80
2017-08-19T04:00:25.119Z,99.50
2017-08-19T04:02:51.054Z,99.50
2017-08-19T04:05:16.972Z,99.60
2017-08-19T04:07:42.903Z,99.70
2017-08-19T04:10:08.812Z,99.60
2017-08-19T04:12:34.750Z,99.80
2017-08-19T04:15:00.652Z,99.40
2017-08-19T04:17:26.591Z,99.60
2017-08-19T04:19:52.521Z,99.50
2017-08-19T04:22:18.449Z,99.40
2017-08-19T04:24:44.399Z,99.40
2017-08-19T04:27:10.332Z,99.40
2017-08-19T04:29:36.286Z,99.30
2017-08-19T04:32:02.211Z,99.30
2017-08-19T04:34:28.147Z,99.30
2017-08-19T04:36:54.042Z,98.90
2017-08-19T04:39:19.990Z,98.60
2017-08-19T04:41:45.926Z,98.60
2017-08-19T04:44:11.844Z,98.50
2017-08-19T04:46:37.786Z,97.60
2017-08-19T04:49:03.711Z,97.50
2017-08-19T04:51:29.648Z,97.20
2017-08-19T04:53:55.589Z,97.10
2017-08-19T04:56:21.563Z,96.80
2017-08-19T04:58:47.505Z,96.80
2017-08-19T05:01:14.167Z,96.60
2017-08-19T05:03:40.126Z,96.90
2017-08-19T05:06:06.129Z,97.10
2017-08-19T05:08:32.052Z,97.00
2017-08-19T05:10:58.004Z,97.10
2017-08-19T05:13:23.948Z,96.90
2017-08-19T05:15:49.863Z,97.00
2017-08-19T05:18:15.806Z,97.10
2017-08-19T05:20:41.752Z,97.00
2017-08-19T05:23:07.708Z,97.10
2017-08-19T05:25:33.631Z,97.00
2017-08-19T05:27:59.580Z,96.90
2017-08-19T05:30:25.491Z,96.90
2017-08-19T05:32:51.475Z,96.90
2017-08-19T05:35:17.416Z,96.80
2017-08-19T05:37:43.362Z,96.80
2017-08-19T05:40:09.299Z,96.60
2017-08-19T05:42:35.225Z,96.80
2017-08-19T05:45:01.140Z,96.60
2017-08-19T05:47:27.115Z,96.60
2017-08-19T05:49:53.059Z,96.60
2017-08-19T05:52:19.005Z,96.80
2017-08-19T05:54:44.922Z,97.00
2017-08-19T05:57:10.860Z,96.70
2017-08-19T05:59:36.847Z,96.50
2017-08-19T06:02:02.771Z,95.30
2017-08-19T06:04:28.703Z,95.50
2017-08-19T06:06:54.606Z,95.70
2017-08-19T06:09:20.543Z,96.00
2017-08-19T06:11:46.448Z,95.10
2017-08-19T06:14:12.371Z,95.00
2017-08-19T06:16:38.327Z,94.60
2017-08-19T06:19:04.291Z,94.60
2017-08-19T06:21:30.224Z,93.10
2017-08-19T06:23:56.144Z,93.20
2017-08-19T06:26:22.055Z,93.30
2017-08-19T06:28:48.007Z,93.10
2017-08-19T06:31:14.442Z,92.40
2017-08-19T06:33:40.373Z,92.10
2017-08-19T06:36:06.338Z,92.10
2017-08-19T06:38:32.309Z,92.20
2017-08-19T06:40:58.227Z,91.40
2017-08-19T06:43:24.246Z,91.70
2017-08-19T06:45:50.209Z,91.30
2017-08-19T06:48:16.170Z,90.90
2017-08-19T06:50:42.105Z,91.00
2017-08-19T06:53:08.030Z,90.50
2017-08-19T06:55:34.011Z,90.60
2017-08-19T06:57:59.970Z,90.50
2017-08-19T07:00:25.899Z,88.70
2017-08-19T07:02:53.280Z,87.60
2017-08-19T07:05:19.209Z,87.00
2017-08-19T07:07:45.152Z,83.80
2017-08-19T07:10:13.436Z,82.50
2017-08-19T07:12:39.359Z,80.80
2017-08-19T07:17:39.760Z,77.00
2017-08-19T07:20:06.873Z,78.20
2017-08-19T07:22:32.898Z,78.80
2017-08-19T07:24:58.848Z,79.10
2017-08-19T07:27:24.781Z,78.20
2017-08-19T07:29:50.865Z,78.90
2017-08-19T07:32:17.705Z,79.70
2017-08-19T07:34:44.148Z,76.10
2017-08-19T07:37:10.184Z,76.40
2017-08-19T07:39:36.181Z,77.20
2017-08-19T07:42:03.644Z,77.90
2017-08-19T07:44:29.662Z,75.20
2017-08-19T07:46:55.589Z,75.20
2017-08-19T07:49:21.554Z,75.60
2017-08-19T07:51:48.551Z,72.80
2017-08-19T07:54:15.478Z,73.90
2017-08-19T07:56:41.940Z,75.50
2017-08-19T07:59:08.977Z,74.10
2017-08-19T08:01:34.905Z,72.00
2017-08-19T08:04:00.832Z,70.10
2017-08-19T08:06:26.826Z,70.70
2017-08-19T08:08:52.866Z,70.20
2017-08-19T08:11:18.833Z,70.20
2017-08-19T08:13:45.031Z,71.50
2017-08-19T08:16:11.170Z,68.30
2017-08-19T08:18:37.184Z,67.80
2017-08-19T08:21:03.206Z,66.60
2017-08-19T08:23:30.073Z,65.90
2017-08-19T08:25:56.164Z,65.00
2017-08-19T08:28:22.149Z,66.00
2017-08-19T08:30:49.063Z,66.80
2017-08-19T08:33:17.311Z,66.40
2017-08-19T08:35:44.280Z,66.80
2017-08-19T08:38:11.244Z,67.20
2017-08-19T08:40:37.315Z,66.50
2017-08-19T08:43:04.649Z,65.40
2017-08-19T08:45:30.628Z,66.60
2017-08-19T08:47:56.592Z,64.90
2017-08-19T08:50:22.600Z,66.00
2017-08-19T08:52:49.037Z,63.60
2017-08-19T08:55:15.176Z,63.80
2017-08-19T08:57:41.153Z,63.50
2017-08-19T09:00:07.223Z,62.80
2017-08-19T09:02:33.203Z,63.10
2017-08-19T09:04:59.211Z,61.50
2017-08-19T09:07:25.209Z,61.10
2017-08-19T09:11:09.587Z,61.20
2017-08-19T09:13:35.608Z,61.00
2017-08-19T09:16:01.604Z,61.60
2017-08-19T09:18:27.524Z,61.50
2017-08-19T09:20:53.495Z,61.00
2017-08-19T09:23:20.384Z,61.20
2017-08-19T09:25:46.639Z,61.40
2017-08-19T09:28:12.672Z,61.00
2017-08-19T09:30:39.207Z,60.20
2017-08-19T09:33:05.211Z,60.20
2017-08-19T09:35:31.162Z,60.60
2017-08-19T09:37:57.140Z,59.40
2017-08-19T09:40:23.371Z,59.60
2017-08-19T09:42:49.473Z,59.40
2017-08-19T09:45:17.426Z,60.40
2017-08-19T09:47:43.630Z,60.00
2017-08-19T09:50:09.632Z,61.20
2017-08-19T09:52:35.651Z,61.20
2017-08-19T09:55:02.548Z,59.40
2017-08-19T09:57:28.504Z,58.80
2017-08-19T09:59:54.580Z,58.50
2017-08-19T10:02:20.656Z,58.90
2017-08-19T10:04:46.629Z,56.90
2017-08-19T10:07:12.599Z,56.10
2017-08-19T10:09:52.542Z,57.10
2017-08-19T10:12:18.536Z,57.20
2017-08-19T10:14:44.491Z,56.80
2017-08-19T10:17:10.480Z,57.80
2017-08-19T10:19:36.487Z,56.80
2017-08-19T10:22:03.180Z,56.50
2017-08-19T10:24:29.305Z,56.60
2017-08-19T10:26:55.286Z,54.60
2017-08-19T10:29:21.340Z,54.90
2017-08-19T10:31:47.566Z,54.90
2017-08-19T10:34:13.558Z,54.50
2017-08-19T10:36:39.561Z,55.10
2017-08-19T10:42:40.849Z,54.40
2017-08-19T10:45:06.826Z,54.40
2017-08-19T10:47:32.832Z,54.90
2017-08-19T10:49:58.979Z,54.90
2017-08-19T10:52:25.054Z,54.30
2017-08-19T10:54:51.105Z,54.40
2017-08-19T10:57:17.135Z,53.70
2017-08-19T10:59:43.111Z,53.50
2017-08-19T11:02:09.132Z,53.40
2017-08-19T11:04:35.110Z,51.00
2017-08-19T11:07:01.209Z,52.10
2017-08-19T11:09:27.159Z,52.50
2017-08-19T11:11:54.006Z,53.30
2017-08-19T11:14:21.192Z,51.80
2017-08-19T11:16:47.111Z,51.40
2017-08-19T11:19:13.066Z,51.90
2017-08-19T11:21:39.159Z,51.30
2017-08-19T11:24:05.850Z,52.10
2017-08-19T11:26:32.010Z,50.30
2017-08-19T11:28:57.929Z,49.20
2017-08-19T11:31:23.924Z,50.40
2017-08-19T11:33:49.925Z,49.10
2017-08-19T11:36:15.885Z,48.50
2017-08-19T11:38:41.879Z,48.60
2017-08-19T11:41:07.938Z,49.80
2017-08-19T11:43:34.033Z,49.30
2017-08-19T11:46:00.272Z,47.80
2017-08-19T11:48:27.219Z,48.20
2017-08-19T11:50:53.328Z,48.30
2017-08-19T11:53:20.268Z,48.10
2017-08-19T11:55:47.429Z,47.80
2017-08-19T11:58:13.404Z,48.30
2017-08-19T12:00:39.352Z,48.80
2017-08-19T12:03:05.443Z,48.40
2017-08-19T12:05:31.404Z,48.10
2017-08-19T12:07:57.778Z,48.20
2017-08-19T12:10:23.836Z,48.50
2017-08-19T12:12:50.444Z,48.90
2017-08-19T12:15:16.631Z,49.00
2017-08-19T12:17:43.579Z,49.00
2017-08-19T12:20:09.619Z,49.40
2017-08-19T12:22:35.657Z,49.80
2017-08-19T12:25:01.761Z,50.50
2017-08-19T12:27:27.780Z,49.50
2017-08-19T12:29:53.824Z,49.00
2017-08-19T12:32:19.845Z,48.70
2017-08-19T12:34:45.971Z,49.30
2017-08-19T12:37:11.971Z,48.60
2017-08-19T12:39:38.049Z,48.60
2017-08-19T12:42:04.039Z,49.00
2017-08-19T12:44:30.062Z,48.60
2017-08-19T12:46:56.062Z,46.90
2017-08-19T12:49:22.093Z,46.50
2017-08-19T12:51:48.103Z,46.10
2017-08-19T12:54:14.127Z,46.80
2017-08-19T12:56:40.179Z,46.40
2017-08-19T12:59:06.961Z,46.80
2017-08-19T13:01:34.251Z,46.70
2017-08-19T13:04:00.218Z,47.80
2017-08-19T13:06:26.321Z,48.70
2017-08-19T13:11:23.078Z,48.00
2017-08-19T13:13:49.319Z,48.50
2017-08-19T13:16:15.470Z,47.70
2017-08-19T13:18:41.507Z,47.60
2017-08-19T13:21:08.236Z,47.50
2017-08-19T13:23:34.201Z,47.10
2017-08-19T13:26:00.857Z,47.00
2017-08-19T13:28:26.899Z,47.80
2017-08-19T13:30:53.045Z,47.10
2017-08-19T13:33:19.027Z,45.70
2017-08-19T13:35:48.938Z,46.80
2017-08-19T13:38:16.387Z,47.20
2017-08-19T13:40:43.044Z,46.40
2017-08-19T13:43:09.504Z,46.50
2017-08-19T13:45:35.581Z,47.30
2017-08-19T13:48:02.731Z,47.30
2017-08-19T13:50:28.960Z,47.30
2017-08-19T13:52:55.004Z,47.10
2017-08-19T13:55:21.316Z,47.00
2017-08-19T13:57:48.328Z,47.40
2017-08-19T14:00:14.696Z,47.90
2017-08-19T14:02:41.124Z,48.30
2017-08-19T14:05:07.809Z,48.10
2017-08-19T14:07:35.093Z,47.60
2017-08-19T14:10:01.868Z,47.20
2017-08-19T14:12:28.516Z,47.00
2017-08-19T14:14:55.293Z,46.40
2017-08-19T14:19:52.188Z,45.90
2017-08-19T14:22:18.220Z,45.80
2017-08-19T14:24:44.995Z,46.70
2017-08-19T14:27:12.789Z,47.50
2017-08-19T14:29:39.159Z,46.50
2017-08-19T14:32:05.508Z,46.40
2017-08-19T14:34:31.501Z,46.10
2017-08-19T14:36:57.700Z,45.10
2017-08-19T14:39:23.708Z,44.80
2017-08-19T14:41:49.741Z,45.60
2017-08-19T14:44:15.813Z,46.10
2017-08-19T14:46:41.814Z,45.90
2017-08-19T14:49:07.739Z,46.10
2017-08-19T14:51:33.828Z,46.20
2017-08-19T14:54:01.165Z,45.30
2017-08-19T14:56:27.853Z,44.20
2017-08-19T14:58:54.680Z,45.70
2017-08-19T15:01:20.743Z,45.70
2017-08-19T15:03:50.238Z,45.10
2017-08-19T15:06:16.273Z,44.50
2017-08-19T15:08:42.295Z,44.40
2017-08-19T15:13:39.940Z,44.00
2017-08-19T15:16:05.914Z,43.30
2017-08-19T15:18:31.884Z,44.50
2017-08-19T15:20:57.876Z,43.70
2017-08-19T15:23:23.872Z,44.50
2017-08-19T15:25:49.931Z,44.70
2017-08-19T15:28:16.717Z,44.40
2017-08-19T15:30:42.663Z,44.70
2017-08-19T15:33:08.755Z,44.90
2017-08-19T15:35:34.707Z,44.90
2017-08-19T15:38:00.932Z,44.30
2017-08-19T15:40:26.883Z,43.80
2017-08-19T15:42:52.888Z,44.10
2017-08-19T15:45:18.895Z,45.00
2017-08-19T15:47:44.855Z,45.80
2017-08-19T15:50:11.509Z,46.90
2017-08-19T15:52:37.577Z,47.30
2017-08-19T15:55:03.579Z,47.40
2017-08-19T15:57:29.633Z,47.40
2017-08-19T15:59:55.644Z,47.30
2017-08-19T16:02:27.123Z,47.60
2017-08-19T16:04:54.299Z,47.40
2017-08-19T16:07:21.284Z,47.00
2017-08-19T16:09:47.953Z,47.10
2017-08-19T16:12:13.959Z,47.10
2017-08-19T16:14:40.613Z,47.20
2017-08-19T16:17:06.745Z,48.00
2017-08-19T16:19:32.897Z,48.20
2017-08-19T16:21:58.992Z,47.50
2017-08-19T16:24:24.993Z,46.50
2017-08-19T16:26:59.999Z,46.90
2017-08-19T16:29:25.999Z,47.20
2017-08-19T16:31:52.019Z,47.70
2017-08-19T16:34:18.019Z,48.20
2017-08-19T16:36:46.340Z,48.30
2017-08-19T16:47:19.729Z,49.40
2017-08-19T16:49:49.763Z,49.90
2017-08-19T16:52:15.772Z,50.30
2017-08-19T16:54:42.123Z,50.20
2017-08-19T16:57:12.611Z,50.80
2017-08-19T17:02:12.249Z,51.50
2017-08-19T17:07:21.206Z,51.50
2017-08-19T17:12:25.723Z,51.60
2017-08-19T17:14:52.090Z,52.10
2017-08-19T17:19:50.847Z,51.70
2017-08-19T17:22:17.141Z,52.10
2017-08-19T17:24:43.168Z,52.20
2017-08-19T17:27:09.878Z,52.70
2017-08-19T17:32:07.252Z,52.90
2017-08-19T17:34:34.101Z,53.10
2017-08-19T17:37:02.577Z,53.30
2017-08-19T17:42:06.150Z,53.50
2017-08-19T17:47:11.252Z,54.50
2017-08-19T17:49:37.992Z,55.80
2017-08-19T17:52:05.070Z,56.90
2017-08-19T17:54:31.806Z,57.30
2017-08-19T17:56:58.000Z,58.50
2017-08-19T18:01:55.773Z,59.10
2017-08-19T18:04:24.076Z,59.70
2017-08-19T18:06:50.842Z,59.40
2017-08-19T18:09:21.669Z,59.70
2017-08-19T18:16:54.801Z,61.80
2017-08-19T18:19:24.002Z,62.00
2017-08-19T18:21:50.817Z,61.60
2017-08-19T18:26:51.195Z,62.10
2017-08-19T18:31:48.070Z,63.20
2017-08-19T18:34:14.090Z,63.60
2017-08-19T18:36:41.305Z,64.70
2017-08-19T18:39:07.289Z,63.30
2017-08-19T18:44:04.139Z,62.20
2017-08-19T18:46:30.102Z,61.70
2017-08-19T18:48:56.168Z,62.60
2017-08-19T18:51:23.947Z,62.00
2017-08-19T18:53:49.924Z,62.70
2017-08-19T18:56:16.008Z,62.70
2017-08-19T18:58:41.992Z,63.40
2017-08-19T19:01:07.985Z,64.00
2017-08-19T19:03:34.022Z,64.50
2017-08-19T19:06:00.043Z,65.20
2017-08-19T19:08:26.016Z,66.30
2017-08-19T19:10:53.000Z,66.00
2017-08-19T19:13:19.001Z,66.50
2017-08-19T19:15:44.969Z,68.60
2017-08-19T19:18:10.957Z,70.70
2017-08-19T19:20:36.904Z,70.80
2017-08-19T19:23:02.971Z,70.30
2017-08-19T19:25:29.447Z,71.80
2017-08-19T19:27:55.473Z,71.80
2017-08-19T19:30:21.605Z,72.50
2017-08-19T19:32:47.641Z,72.90
2017-08-19T19:35:13.634Z,72.40
2017-08-19T19:37:39.582Z,72.40
2017-08-19T19:40:05.539Z,72.20
2017-08-19T19:42:31.500Z,71.60
2017-08-19T19:44:58.423Z,72.00
2017-08-19T19:47:25.183Z,72.70
2017-08-19T19:49:51.132Z,73.40
2017-08-19T19:52:17.232Z,74.10
2017-08-19T19:54:43.315Z,74.80
2017-08-19T19:57:12.017Z,75.40
2017-08-19T19:59:38.082Z,75.80
2017-08-19T20:02:04.099Z,76.10
2017-08-19T20:04:30.061Z,76.40
2017-08-19T20:06:56.378Z,77.10
2017-08-19T20:09:22.352Z,77.10
2017-08-19T20:11:48.287Z,76.80
2017-08-19T20:14:14.315Z,76.30
2017-08-19T20:16:40.352Z,76.20
2017-08-19T20:19:06.348Z,76.40
2017-08-19T20:21:32.285Z,76.60
2017-08-19T20:23:59.246Z,76.70
2017-08-19T20:26:25.251Z,77.40
2017-08-19T20:28:51.820Z,77.50
2017-08-19T20:31:17.859Z,78.10
2017-08-19T20:33:43.821Z,78.60
2017-08-19T20:36:10.178Z,78.90
2017-08-19T20:38:36.279Z,79.40
2017-08-19T20:41:02.801Z,80.00
2017-08-19T20:43:29.578Z,81.00
2017-08-19T20:45:55.571Z,81.30
2017-08-19T20:48:22.048Z,81.50
2017-08-19T20:50:48.034Z,82.30
2017-08-19T20:53:14.043Z,82.70
2017-08-19T20:55:40.012Z,83.10
2017-08-19T20:58:05.960Z,83.60
2017-08-19T21:00:31.972Z,83.80
2017-08-19T21:02:58.172Z,84.40
2017-08-19T21:05:24.434Z,84.60
2017-08-19T21:07:50.430Z,84.30
2017-08-19T21:10:16.419Z,84.20
2017-08-19T21:12:42.494Z,84.10
2017-08-19T21:15:08.499Z,84.30
2017-08-19T21:17:34.575Z,84.50
2017-08-19T21:20:00.569Z,84.80
2017-08-19T21:22:26.907Z,85.20
2017-08-19T21:24:52.866Z,85.60
2017-08-19T21:27:18.928Z,84.70
2017-08-19T21:29:44.872Z,85.00
2017-08-19T21:32:11.016Z,85.10
2017-08-19T21:34:36.993Z,83.50
2017-08-19T21:37:03.139Z,84.10
2017-08-19T21:39:29.137Z,84.10
2017-08-19T21:41:55.635Z,84.50
2017-08-19T21:44:21.595Z,84.90
2017-08-19T21:46:47.542Z,85.20
2017-08-19T21:49:13.485Z,85.10
2017-08-19T21:51:39.497Z,85.10
2017-08-19T21:54:05.466Z,84.40
2017-08-19T21:56:31.492Z,84.50
2017-08-19T21:58:57.463Z,84.10
2017-08-19T22:01:23.440Z,84.20
2017-08-19T22:03:49.383Z,84.60
2017-08-19T22:06:16.168Z,84.90
2017-08-19T22:08:42.785Z,85.00
2017-08-19T22:11:08.781Z,85.50
2017-08-19T22:13:34.750Z,85.60
2017-08-19T22:16:00.877Z,85.60
2017-08-19T22:18:26.925Z,85.50
2017-08-19T22:20:53.030Z,85.40
2017-08-19T22:23:18.977Z,86.10
2017-08-19T22:25:45.743Z,86.80
2017-08-19T22:45:30.549Z,89.70
2017-08-19T22:47:56.614Z,90.10
2017-08-19T22:50:22.588Z,90.30
2017-08-19T22:52:48.595Z,90.60
2017-08-19T22:55:14.581Z,90.80
2017-08-19T22:57:40.878Z,91.10
2017-08-19T23:00:06.791Z,91.20
2017-08-19T23:02:32.722Z,91.30
2017-08-19T23:04:58.704Z,91.40
2017-08-19T23:07:24.875Z,91.60
2017-08-19T23:09:50.815Z,91.60
2017-08-19T23:12:17.731Z,91.70
2017-08-19T23:14:43.707Z,91.90
2017-08-19T23:17:09.885Z,92.00
2017-08-19T23:19:35.852Z,92.20
2017-08-19T23:22:01.986Z,92.30
2017-08-19T23:24:27.967Z,92.30
2017-08-19T23:26:53.919Z,92.60
2017-08-19T23:29:19.859Z,92.70
2017-08-19T23:31:45.831Z,92.90
2017-08-19T23:34:11.798Z,92.70
2017-08-19T23:36:37.847Z,93.00
2017-08-19T23:39:03.944Z,93.20
2017-08-19T23:41:29.927Z,93.20
2017-08-19T23:43:56.782Z,93.20
2017-08-19T23:46:22.792Z,93.30
2017-08-19T23:48:48.757Z,93.50
2017-08-19T23:51:14.732Z,94.00
2017-08-19T23:53:40.936Z,93.50
2017-08-19T23:56:06.875Z,93.20
2017-08-19T23:58:32.853Z,93.10
